Latest Weather Observations for Mount Ginini

IDN60901

Issued at 12:35 pm EDT Wednesday 26 November 2014 (issued every 10 minutes, with the page automatically refreshed every 10 minutes)

About weather observations | Map of Canberra area stations | Latest observations for Canberra area | Other Formats
Station Details ID: 070349 Name: MOUNT GININI AWS Lat: -35.53 Lon: 148.77 Height: 1760.0 m
Data from the previous 72 hours. | See also: Recent months at Mount Ginini
Date/Time
EDT
Tmp

°C
App
Tmp
°C
Dew
Point
°C
Rel
Hum
%
Delta-T

°C
Wind Press
QNH
hPa
Press
MSL
hPa
Rain
since
9 am
mm
Dir
 
Spd
km/h
Gust
km/h
Spd
kts
Gust
kts
26/12:30pm 13.8 10.5 4.4 53 4.8 W 11 22 6 12 - - 0.0
26/12:00pm 12.8 9.5 2.6 50 5.0 W 9 20 5 11 - - 0.0
26/11:30am 12.2 9.1 1.2 47 5.2 W 7 15 4 8 - - 0.0
26/11:00am 12.4 9.1 2.3 50 4.9 W 9 20 5 11 - - 0.0
26/10:30am 10.7 6.6 2.5 57 3.9 WSW 13 24 7 13 - - 0.0
26/10:00am 9.7 5.5 1.8 58 3.7 SW 13 20 7 11 - - 0.0
26/09:30am 9.1 5.0 2.0 61 3.3 SW 13 20 7 11 - - 0.0
26/09:00am 8.4 4.0 0.6 58 3.5 SW 13 22 7 12 - - 0.0
26/08:30am 7.2 3.0 -1.2 55 3.6 WSW 11 19 6 10 - - 0.0
26/08:00am 7.1 2.4 -1.8 53 3.7 SW 13 24 7 13 - - 0.0
26/07:30am 6.3 1.9 -2.1 55 3.5 SW 11 19 6 10 - - 0.0
26/07:00am 5.0 0.7 -1.9 61 2.8 W 11 15 6 8 - - 0.0
26/06:30am 4.1 -0.7 -2.7 61 2.7 W 13 15 7 8 - - 0.0
26/06:00am 3.4 -0.9 -1.7 69 2.1 W 11 13 6 7 - - 0.0
26/05:30am 3.3 -1.0 -1.6 70 2.0 WNW 11 15 6 8 - - 0.0
26/05:00am 3.1 -1.5 -1.3 73 1.8 NW 13 17 7 9 - - 0.0
26/04:30am 3.2 -0.5 -0.1 79 1.4 NNW 9 13 5 7 - - 0.0
26/04:00am 3.6 -0.3 -1.3 70 2.0 N 9 17 5 9 - - 0.0
26/03:30am 2.8 -0.2 1.9 94 0.4 NNE 7 13 4 7 - - 0.0
26/03:00am 3.0 0.2 2.1 94 0.4 NE 6 7 3 4 - - 0.0
26/02:30am 3.4 0.5 -1.3 71 1.9 W 4 6 2 3 - - 0.0
26/02:00am 3.1 0.7 2.1 93 0.4 NNE 4 6 2 3 - - 0.0
26/01:30am 4.2 0.6 -3.5 57 3.0 N 6 9 3 5 - - 0.0
26/01:00am 5.0 1.3 -3.0 56 3.2 N 7 11 4 6 - - 0.0
26/12:30am 5.5 0.2 -11.5 28 5.8 WNW 11 15 6 8 - - 0.0
26/12:00am 6.1 0.7 -14.5 21 6.6 WNW 11 17 6 9 - - 0.0
 
Date/Time
EDT
Tmp

°C
App
Tmp
°C
Dew
Point
°C
Rel
Hum
%
Delta-T

°C
Wind Press
QNH
hPa
Press
MSL
hPa
Rain
since
9 am
mm
Dir
 
Spd
km/h
Gust
km/h
Spd
kts
Gust
kts
25/11:30pm 6.4 1.0 -14.3 21 6.3 W 11 19 6 10 - - 0.0
25/11:00pm 6.5 1.2 -11.6 26 5.9 WNW 11 17 6 9 - - 0.0
25/10:30pm 4.5 1.1 -0.9 68 2.3 WSW 7 11 4 6 - - 0.0
25/10:00pm 4.9 1.0 1.4 78 1.5 SSW 11 19 6 10 - - 0.0
25/09:30pm 5.0 1.0 0.6 73 1.9 SSW 11 15 6 8 - - 0.0
25/09:00pm 5.6 1.3 0.8 71 2.1 SW 13 20 7 11 - - 0.0
25/08:30pm 6.2 1.9 0.9 69 2.3 SW 13 22 7 12 - - 0.0
25/08:00pm 7.1 3.3 1.6 68 2.5 WSW 11 19 6 10 - - 0.0
25/07:30pm 8.4 4.7 2.4 66 2.8 W 11 22 6 12 - - 0.0
25/07:00pm 10.0 6.0 2.6 60 3.5 W 13 24 7 13 - - 0.0
25/06:30pm 11.0 7.0 2.8 57 3.9 W 13 26 7 14 - - 0.0
25/06:00pm 12.3 8.4 3.5 55 4.3 W 13 24 7 13 - - 0.0
25/05:30pm 12.5 8.9 3.2 53 4.6 W 11 22 6 12 - - 0.0
25/05:00pm 12.9 9.6 2.5 49 5.0 WNW 9 22 5 12 - - 0.0
25/04:30pm 13.5 9.9 2.7 48 5.3 WSW 11 24 6 13 - - 0.0
25/04:00pm 13.4 9.3 -0.3 39 6.3 WSW 11 24 6 13 - - 0.0
25/03:30pm 13.6 9.1 -0.4 38 6.4 WSW 13 26 7 14 - - 0.0
25/03:00pm 13.2 8.8 0.3 41 6.0 WSW 13 26 7 14 - - 0.0
25/02:30pm 12.7 8.1 -0.9 39 6.1 WSW 13 28 7 15 - - 0.0
25/02:00pm 12.3 7.7 -1.2 39 6.0 WSW 13 26 7 14 - - 0.0
25/01:30pm 12.0 7.6 0.5 45 5.3 WSW 13 28 7 15 - - 0.0
25/01:00pm 11.6 6.7 -0.5 43 5.4 WSW 15 37 8 20 - - 0.0
25/12:30pm 11.3 7.3 0.4 47 5.0 W 11 22 6 12 - - 0.0
25/12:00pm 10.0 4.1 -2.0 43 5.1 WSW 19 32 10 17 - - 0.0
25/11:30am 9.9 4.1 -1.8 44 5.0 WSW 19 33 10 18 - - 0.0
25/11:00am 9.0 3.0 -3.2 42 5.0 WSW 19 35 10 19 - - 0.0
25/10:30am 8.2 2.0 -4.6 40 5.1 WSW 19 35 10 19 - - 0.0
25/10:00am 7.9 1.9 -3.0 46 4.5 WSW 19 37 10 20 - - 0.0
25/09:30am 6.8 0.6 -3.4 48 4.1 WSW 20 37 11 20 - - 0.0
25/09:00am 5.8 -0.6 -4.6 47 4.0 WSW 20 43 11 23 - - 17.8
25/08:30am 4.6 -2.5 -4.1 53 3.4 WSW 24 43 13 23 - - 17.8
25/08:00am 4.2 -2.3 -5.5 49 3.6 SW 20 37 11 20 - - 17.8
25/07:30am 3.4 -4.3 -6.3 49 3.7 SW 26 48 14 26 - - 17.8
25/07:00am 3.2 -5.7 -6.7 48 3.7 SW 32 63 17 34 - - 17.8
25/06:30am 2.7 -5.6 -4.5 59 2.7 WSW 30 57 16 31 - - 17.8
25/06:00am 3.4 -4.5 0.8 83 1.1 WSW 32 57 17 31 - - 17.8
25/05:32am 4.3 -2.4 3.6 95 0.3 WSW 28 61 15 33 - - 17.8
25/05:30am 4.3 -1.6 3.7 96 0.3 WSW 24 61 13 33 - - 17.8
25/05:00am 5.1 -0.6 4.7 97 0.2 WSW 24 44 13 24 - - 17.8
25/04:30am 6.0 -0.7 5.6 97 0.2 WSW 30 54 16 29 - - 17.8
25/04:02am 6.7 0.5 6.3 97 0.2 WSW 28 54 15 29 - - 17.8
25/04:00am 6.7 0.9 6.3 97 0.2 WSW 26 52 14 28 - - 17.8
25/03:30am 8.5 2.7 8.1 97 0.2 WSW 28 50 15 27 - - 17.8
25/03:00am 8.9 2.9 8.5 97 0.2 W 30 57 16 31 - - 17.8
25/02:30am 9.7 4.2 9.2 97 0.3 W 28 54 15 29 - - 17.8
25/02:00am 9.8 4.3 9.3 97 0.3 W 28 56 15 30 - - 17.8
25/01:30am 9.8 4.0 9.5 98 0.2 W 30 61 16 33 - - 17.8
25/01:00am 9.4 3.1 9.1 98 0.2 W 32 54 17 29 - - 17.8
25/12:30am 9.3 3.8 9.0 98 0.2 W 28 52 15 28 - - 17.8
25/12:05am 9.2 3.6 8.9 98 0.2 W 28 48 15 26 - - 17.8
25/12:00am 9.1 4.3 8.8 98 0.2 W 24 50 13 27 - - 17.8
 
Date/Time
EDT
Tmp

°C
App
Tmp
°C
Dew
Point
°C
Rel
Hum
%
Delta-T

°C
Wind Press
QNH
hPa
Press
MSL
hPa
Rain
since
9 am
mm
Dir
 
Spd
km/h
Gust
km/h
Spd
kts
Gust
kts
24/11:30pm 8.9 2.5 8.6 98 0.2 W 32 65 17 35 - - 17.6
24/11:00pm 9.0 3.4 8.7 98 0.2 WSW 28 52 15 28 - - 17.0
24/10:46pm 9.2 3.6 8.9 98 0.2 WSW 28 54 15 29 - - 16.6
24/10:30pm 9.4 4.3 9.1 98 0.2 WSW 26 56 14 30 - - 15.4
24/10:04pm 10.7 5.2 10.4 98 0.2 SW 30 56 16 30 - - 11.2
24/10:00pm 11.7 9.3 11.4 98 0.2 W 15 30 8 16 - - 10.0
24/09:30pm 11.6 8.4 11.3 98 0.2 W 19 37 10 20 - - 9.6
24/09:00pm 11.6 8.2 11.3 98 0.2 W 20 37 11 20 - - 9.2
24/08:30pm 11.4 8.2 11.1 98 0.2 W 19 32 10 17 - - 9.2
24/08:00pm 11.6 8.2 11.3 98 0.2 W 20 33 11 18 - - 9.2
24/07:30pm 11.8 8.5 11.5 98 0.2 W 20 33 11 18 - - 9.2
24/07:00pm 12.0 9.7 11.7 98 0.2 W 15 32 8 17 - - 9.2
24/06:30pm 12.3 9.1 12.0 98 0.2 W 20 39 11 21 - - 9.2
24/06:00pm 12.4 10.2 12.1 98 0.2 W 15 32 8 17 - - 9.2
24/05:30pm 12.5 9.4 12.2 98 0.2 NW 20 37 11 20 - - 9.2
24/05:08pm 12.3 7.6 12.0 98 0.2 NW 28 48 15 26 - - 9.2
24/05:00pm 12.2 8.2 11.9 98 0.2 NW 24 43 13 23 - - 9.2
24/04:30pm 12.2 8.6 11.9 98 0.2 WNW 22 37 12 20 - - 9.2
24/04:00pm 12.0 8.7 11.7 98 0.2 WNW 20 39 11 21 - - 9.0
24/03:30pm 11.7 9.7 11.4 98 0.2 WNW 13 26 7 14 - - 8.4
24/03:00pm 12.3 10.5 12.0 98 0.2 WNW 13 24 7 13 - - 7.8
24/02:30pm 11.5 9.0 11.2 98 0.2 W 15 26 8 14 - - 6.6
24/02:00pm 11.7 8.9 11.4 98 0.2 W 17 32 9 17 - - 5.0
24/01:30pm 11.5 9.0 11.0 97 0.3 W 15 28 8 15 - - 3.6
24/01:00pm 12.0 10.0 11.5 97 0.3 WSW 13 24 7 13 - - 1.2
24/12:30pm 11.9 9.5 11.3 96 0.3 W 15 30 8 16 - - 1.0
24/12:00pm 12.4 9.8 11.9 97 0.3 W 17 28 9 15 - - 0.6
24/11:30am 11.8 8.4 11.3 97 0.3 W 20 35 11 19 - - 0.4
24/11:00am 12.1 7.7 11.6 97 0.3 W 26 41 14 22 - - 0.2
24/10:30am 11.8 7.2 11.2 96 0.3 WSW 26 44 14 24 - - 0.0
24/10:10am 12.2 7.3 11.4 95 0.5 WSW 28 48 15 26 - - 0.0
24/10:00am 11.9 7.7 11.0 94 0.5 WSW 24 44 13 24 - - 0.0
24/09:30am 11.6 8.2 10.7 94 0.5 WSW 19 33 10 18 - - 0.0
24/09:00am 11.0 7.5 10.2 95 0.4 SW 19 32 10 17 - - 8.0
24/08:30am 11.3 7.7 10.5 95 0.5 W 20 41 11 22 - - 7.6
24/08:00am 10.8 8.1 10.3 97 0.3 WSW 15 33 8 18 - - 6.6
24/07:30am 11.1 8.1 10.6 97 0.3 W 17 30 9 16 - - 5.4
24/07:00am 11.4 7.9 10.8 96 0.3 W 20 44 11 24 - - 3.4
24/06:30am 11.7 7.8 10.9 95 0.5 W 22 48 12 26 - - 2.0
24/06:00am 12.3 9.5 11.4 94 0.5 W 17 33 9 18 - - 1.6
24/05:30am 11.7 8.8 10.9 95 0.5 WSW 17 26 9 14 - - 1.4
24/05:00am 11.4 8.0 10.5 94 0.5 SW 19 32 10 17 - - 0.8
24/04:30am 11.2 7.7 10.3 94 0.5 SW 19 30 10 16 - - 0.6
24/04:00am 12.5 10.2 9.0 79 1.9 W 11 22 6 12 - - 0.4
24/03:30am 12.3 9.8 8.4 77 2.1 WSW 11 17 6 9 - - 0.4
24/03:00am 13.6 10.5 7.2 65 3.4 W 13 28 7 15 - - 0.0
24/02:30am 15.3 12.0 6.3 55 4.8 SW 13 28 7 15 - - 0.0
24/02:00am 15.7 9.3 5.3 50 5.4 SSW 28 41 15 22 - - 0.0
24/01:30am 16.8 11.4 4.5 44 6.4 SSW 22 30 12 16 - - 0.0
24/01:00am 16.2 11.9 7.2 55 4.9 SSW 19 26 10 14 - - 0.0
24/12:30am 16.3 12.1 7.3 55 4.9 SW 19 28 10 15 - - 0.0
24/12:00am 16.6 13.4 6.7 52 5.4 WSW 13 28 7 15 - - 0.0
 
Date/Time
EDT
Tmp

°C
App
Tmp
°C
Dew
Point
°C
Rel
Hum
%
Delta-T

°C
Wind Press
QNH
hPa
Press
MSL
hPa
Rain
since
9 am
mm
Dir
 
Spd
km/h
Gust
km/h
Spd
kts
Gust
kts
23/11:30pm 17.1 13.1 6.6 50 5.7 WSW 17 35 9 19 - - 0.0
23/11:00pm 17.4 13.6 5.7 46 6.2 WSW 15 26 8 14 - - 0.0
23/10:30pm 18.5 14.1 5.0 41 7.2 WSW 17 39 9 21 - - 0.0
23/10:00pm 18.3 14.2 6.2 45 6.5 SW 17 30 9 16 - - 0.0
23/09:30pm 18.9 15.1 5.7 42 7.1 SW 15 24 8 13 - - 0.0
23/09:00pm 19.6 16.5 5.6 40 7.5 SW 11 22 6 12 - - 0.0
23/08:30pm 19.9 16.8 5.5 39 7.8 WSW 11 20 6 11 - - 0.0
23/08:00pm 20.9 17.4 5.3 36 8.4 WSW 13 39 7 21 - - 0.0
23/07:30pm 21.9 17.0 4.9 33 9.2 W 20 41 11 22 - - 0.0
23/07:05pm 22.7 16.3 5.2 32 9.5 WSW 28 48 15 26 - - 0.0
23/07:00pm 22.8 17.9 5.3 32 9.6 W 20 48 11 26 - - 0.0
23/06:30pm 23.7 18.9 5.6 31 10.0 W 20 43 11 23 - - 0.0
23/06:00pm 24.4 18.9 5.7 30 10.4 W 24 52 13 28 - - 0.0
23/05:30pm 25.3 20.8 7.0 31 10.4 W 20 39 11 21 - - 0.0
23/05:00pm 25.9 21.0 7.0 30 10.8 W 22 48 12 26 - - 0.0
23/04:30pm 26.0 20.7 6.6 29 11.0 WNW 24 46 13 25 - - 0.0
23/04:10pm 25.8 19.7 6.4 29 11.0 W 28 61 15 33 - - 0.0
23/04:00pm 26.6 22.0 6.6 28 11.4 WNW 20 56 11 30 - - 0.0
23/03:30pm 26.5 23.0 7.0 29 11.2 W 15 37 8 20 - - 0.0
23/03:00pm 26.0 21.7 7.1 30 10.8 WNW 19 37 10 20 - - 0.0
23/02:30pm 25.1 20.8 7.7 33 10.0 WNW 20 44 11 24 - - 0.0
23/02:00pm 26.2 22.7 7.3 30 10.9 W 15 43 8 23 - - 0.0
23/01:30pm 25.8 21.5 7.9 32 10.4 WNW 20 46 11 25 - - 0.0
23/01:00pm 24.8 20.4 7.4 33 10.0 W 20 43 11 23 - - 0.0

Latest Capital City Observations: Canberra | Sydney | Melbourne | Brisbane | Adelaide | Perth | Hobart | Darwin

Other Formats:

Comma delimited format used in spreadsheet applications
http://www.bom.gov.au/fwo/IDN60903/IDN60903.95925.axf

JavaScript Object Notation format (JSON) in row-major order
http://www.bom.gov.au/fwo/IDN60903/IDN60903.95925.json